Time;durP1;ratioP1;P1;durP2;ratioP2;P2;SDS_P1;SDS_P2;PMS_P1;PMS_P2;Temp;Humidity;BMP_temperature;BMP_pressure;BME280_temperature;BME280_humidity;BME280_pressure;Samples;Min_cycle;Max_cycle;Signal;HPM_P1;HPM_P2
2023/03/16 00:01:42;;;;;;;3.58;2.78;;;;;;;;;;5045404;28;20571;-51
2023/03/16 00:04:08;;;;;;;3.95;2.72;;;;;;;;;;5044051;28;20183;-51
2023/03/16 00:06:35;;;;;;;3.20;2.45;;;;;;;;;;5047928;28;20191;-52
2023/03/16 00:09:01;;;;;;;2.50;2.30;;;;;;;;;;5048303;28;20453;-51
2023/03/16 00:11:28;;;;;;;2.83;2.53;;;;;;;;;;5061923;28;20191;-51
2023/03/16 00:13:54;;;;;;;3.15;2.85;;;;;;;;;;5062518;28;20213;-51
2023/03/16 00:16:20;;;;;;;2.75;2.42;;;;;;;;;;5046944;28;20183;-51
2023/03/16 00:18:46;;;;;;;2.95;2.58;;;;;;;;;;5062516;28;20187;-52
2023/03/16 00:21:13;;;;;;;3.47;2.47;;;;;;;;;;5040405;28;20187;-51
2023/03/16 00:23:39;;;;;;;2.47;2.28;;;;;;;;;;5043502;28;20183;-51
2023/03/16 00:26:06;;;;;;;3.42;2.78;;;;;;;;;;5041651;28;20191;-51
2023/03/16 00:28:34;;;;;;;3.47;2.65;;;;;;;;;;5038463;28;20197;-51
2023/03/16 00:31:03;;;;;;;2.95;2.58;;;;;;;;;;5054744;28;20810;-51
2023/03/16 00:33:33;;;;;;;4.20;2.40;;;;;;;;;;5045913;28;20187;-51
2023/03/16 00:36:02;;;;;;;3.35;2.40;;;;;;;;;;5047469;28;20171;-51
2023/03/16 00:38:36;;;;;;;2.70;2.42;;;;;;;;;;5045763;28;20172;-51
2023/03/16 00:41:03;;;;;;;2.63;2.20;;;;;;;;;;5052609;28;20248;-52
2023/03/16 00:43:30;;;;;;;2.65;2.22;;;;;;;;;;5036821;28;20184;-53
2023/03/16 00:46:05;;;;;;;2.83;2.30;;;;;;;;;;5044682;28;20176;-51
2023/03/16 00:48:33;;;;;;;3.80;2.35;;;;;;;;;;5036820;28;20274;-50
2023/03/16 00:50:59;;;;;;;2.67;2.47;;;;;;;;;;5052265;28;20179;-51
2023/03/16 00:53:25;;;;;;;3.08;2.40;;;;;;;;;;5052159;28;20199;-51
2023/03/16 00:55:52;;;;;;;3.00;2.38;;;;;;;;;;5047032;28;20659;-51
2023/03/16 00:58:18;;;;;;;2.78;2.45;;;;;;;;;;5038711;28;20186;-51
2023/03/16 01:00:45;;;;;;;2.67;2.28;;;;;;;;;;5051616;28;20183;-52
2023/03/16 01:03:11;;;;;;;2.75;2.53;;;;;;;;;;5042968;28;20207;-51
2023/03/16 01:05:40;;;;;;;3.17;2.35;;;;;;;;;;5044706;28;20497;-51
2023/03/16 01:08:07;;;;;;;3.05;2.33;;;;;;;;;;5043652;28;20190;-51
2023/03/16 01:10:33;;;;;;;2.67;2.40;;;;;;;;;;5042795;28;20270;-51
2023/03/16 01:12:59;;;;;;;3.67;2.35;;;;;;;;;;5047572;28;20418;-51
2023/03/16 01:15:25;;;;;;;2.42;2.13;;;;;;;;;;5049367;28;20264;-51
2023/03/16 01:17:51;;;;;;;2.90;2.60;;;;;;;;;;5041915;28;20192;-51
2023/03/16 01:20:18;;;;;;;2.75;2.33;;;;;;;;;;5042695;28;20191;-51
2023/03/16 01:22:44;;;;;;;2.80;2.20;;;;;;;;;;5053963;28;20183;-51
2023/03/16 01:25:11;;;;;;;2.63;2.40;;;;;;;;;;5038475;28;20227;-51
2023/03/16 01:27:37;;;;;;;2.70;2.50;;;;;;;;;;5036927;28;20179;-51
2023/03/16 01:30:04;;;;;;;2.80;2.53;;;;;;;;;;5045288;28;20260;-51
2023/03/16 01:32:30;;;;;;;2.90;1.98;;;;;;;;;;5039321;28;20440;-51
2023/03/16 01:34:56;;;;;;;2.33;2.13;;;;;;;;;;5036593;28;20216;-51
2023/03/16 01:37:22;;;;;;;2.50;2.30;;;;;;;;;;5055171;28;20647;-51
2023/03/16 01:39:48;;;;;;;2.60;2.30;;;;;;;;;;5055799;28;20175;-51
2023/03/16 01:42:14;;;;;;;2.40;2.15;;;;;;;;;;5055718;28;20266;-51
2023/03/16 01:45:00;;;;;;;2.00;1.90;;;;;;;;;;5041151;28;20194;-51
2023/03/16 01:47:26;;;;;;;2.60;2.40;;;;;;;;;;5042668;28;20467;-51
2023/03/16 01:49:54;;;;;;;2.55;2.22;;;;;;;;;;5051705;28;20273;-51
2023/03/16 01:52:21;;;;;;;2.40;2.20;;;;;;;;;;5038479;28;20182;-51
2023/03/16 01:54:59;;;;;;;2.97;2.25;;;;;;;;;;5043422;28;20213;-51
2023/03/16 01:57:29;;;;;;;2.53;2.10;;;;;;;;;;5041264;28;20190;-51
2023/03/16 02:00:30;;;;;;;3.03;2.28;;;;;;;;;;5039193;28;20202;-51
2023/03/16 02:02:57;;;;;;;2.53;2.22;;;;;;;;;;5043944;28;20179;-51
2023/03/16 02:05:32;;;;;;;2.40;2.20;;;;;;;;;;5041827;28;20191;-53
2023/03/16 02:07:58;;;;;;;2.47;2.10;;;;;;;;;;5041656;28;20639;-52
2023/03/16 02:10:26;;;;;;;2.53;2.33;;;;;;;;;;5059777;28;20189;-52
2023/03/16 02:12:52;;;;;;;2.10;1.90;;;;;;;;;;5049719;28;20567;-52
2023/03/16 02:15:18;;;;;;;2.10;1.90;;;;;;;;;;5058681;28;20224;-51
2023/03/16 02:17:44;;;;;;;3.03;2.40;;;;;;;;;;5047332;28;20270;-51
2023/03/16 02:20:23;;;;;;;2.95;2.20;;;;;;;;;;5036531;28;20354;-51
2023/03/16 02:22:53;;;;;;;2.28;2.08;;;;;;;;;;5044886;28;20724;-52
2023/03/16 02:25:21;;;;;;;2.35;2.15;;;;;;;;;;5043546;28;20503;-51
2023/03/16 02:28:05;;;;;;;2.42;2.20;;;;;;;;;;5050072;28;20172;-51
2023/03/16 02:30:31;;;;;;;2.88;2.10;;;;;;;;;;5055384;28;20191;-51
2023/03/16 02:32:57;;;;;;;2.75;2.30;;;;;;;;;;5049705;28;20294;-51
2023/03/16 02:35:23;;;;;;;2.33;2.13;;;;;;;;;;5043306;28;20207;-51
2023/03/16 02:37:51;;;;;;;2.38;2.17;;;;;;;;;;5056015;28;20551;-51
2023/03/16 02:40:22;;;;;;;2.08;1.88;;;;;;;;;;5050284;28;20171;-52
2023/03/16 02:42:53;;;;;;;2.92;1.88;;;;;;;;;;5052376;28;20176;-52
2023/03/16 02:45:19;;;;;;;2.47;2.03;;;;;;;;;;5034334;28;20200;-52
2023/03/16 02:47:47;;;;;;;1.85;1.73;;;;;;;;;;5043325;28;20218;-51
2023/03/16 02:50:13;;;;;;;2.55;2.10;;;;;;;;;;5041568;28;20192;-52
2023/03/16 02:52:40;;;;;;;1.85;1.73;;;;;;;;;;5045617;28;20238;-51
2023/03/16 02:55:06;;;;;;;2.30;1.83;;;;;;;;;;5043069;28;20200;-51
2023/03/16 02:57:32;;;;;;;1.98;1.85;;;;;;;;;;5035417;28;20479;-52
2023/03/16 02:59:58;;;;;;;1.92;1.70;;;;;;;;;;5042701;28;20168;-51
2023/03/16 03:02:24;;;;;;;1.95;1.67;;;;;;;;;;5035504;28;20222;-51
2023/03/16 03:04:53;;;;;;;1.75;1.65;;;;;;;;;;5043382;28;20210;-52
2023/03/16 03:07:20;;;;;;;2.13;1.92;;;;;;;;;;5041590;28;20183;-52
2023/03/16 03:09:45;;;;;;;2.22;1.90;;;;;;;;;;5048529;28;20191;-51
2023/03/16 03:12:12;;;;;;;2.17;1.80;;;;;;;;;;5048121;28;20252;-51
2023/03/16 03:14:38;;;;;;;2.33;1.80;;;;;;;;;;5057182;28;20538;-51
2023/03/16 03:17:06;;;;;;;1.92;1.73;;;;;;;;;;5042257;28;20525;-51
2023/03/16 03:19:32;;;;;;;2.72;1.85;;;;;;;;;;5039315;28;20180;-50
2023/03/16 03:21:58;;;;;;;2.22;1.77;;;;;;;;;;5054590;28;20187;-52
2023/03/16 03:24:26;;;;;;;1.70;1.60;;;;;;;;;;5046483;28;20267;-52
2023/03/16 03:26:52;;;;;;;1.65;1.55;;;;;;;;;;5048885;28;20182;-51
2023/03/16 03:29:19;;;;;;;2.20;1.90;;;;;;;;;;5040596;28;20175;-51
2023/03/16 03:31:45;;;;;;;2.67;1.90;;;;;;;;;;5036457;28;20187;-51
2023/03/16 03:34:10;;;;;;;1.50;1.35;;;;;;;;;;5039274;28;20196;-51
2023/03/16 03:36:36;;;;;;;2.15;1.88;;;;;;;;;;5046497;28;20581;-51
2023/03/16 03:39:06;;;;;;;2.08;1.70;;;;;;;;;;5040176;28;20286;-52
2023/03/16 03:41:33;;;;;;;1.95;1.73;;;;;;;;;;5054605;28;20229;-50
2023/03/16 03:43:59;;;;;;;2.28;1.63;;;;;;;;;;5047000;28;20225;-51
2023/03/16 03:46:25;;;;;;;2.75;1.63;;;;;;;;;;5045860;28;20188;-51
2023/03/16 03:48:52;;;;;;;2.47;1.75;;;;;;;;;;5041550;28;20560;-52
2023/03/16 03:51:18;;;;;;;1.60;1.50;;;;;;;;;;5057890;28;20255;-51
2023/03/16 03:53:43;;;;;;;1.90;1.60;;;;;;;;;;5043824;28;20266;-51
2023/03/16 03:56:09;;;;;;;1.55;1.30;;;;;;;;;;5052076;28;20184;-51
2023/03/16 03:58:35;;;;;;;1.73;1.40;;;;;;;;;;5052897;28;20193;-50
2023/03/16 04:01:01;;;;;;;1.50;1.40;;;;;;;;;;5044398;28;20180;-52
2023/03/16 04:03:27;;;;;;;1.50;1.40;;;;;;;;;;5043349;28;20392;-51
2023/03/16 04:05:53;;;;;;;3.00;1.50;;;;;;;;;;5038321;28;20562;-51
2023/03/16 04:08:19;;;;;;;1.70;1.45;;;;;;;;;;5036007;28;20183;-51
2023/03/16 04:10:45;;;;;;;1.52;1.42;;;;;;;;;;5057907;28;20183;-50
2023/03/16 04:13:11;;;;;;;1.85;1.50;;;;;;;;;;5065568;28;20206;-51
2023/03/16 04:15:37;;;;;;;2.75;1.70;;;;;;;;;;5046474;28;20457;-50
2023/03/16 04:18:03;;;;;;;1.50;1.40;;;;;;;;;;5044606;28;20638;-50
2023/03/16 04:20:29;;;;;;;3.08;1.70;;;;;;;;;;5038732;28;20188;-52
2023/03/16 04:22:57;;;;;;;1.58;1.45;;;;;;;;;;5044091;28;20444;-50
2023/03/16 04:25:25;;;;;;;1.52;1.40;;;;;;;;;;5035892;28;20445;-50
2023/03/16 04:27:51;;;;;;;1.50;1.40;;;;;;;;;;5043793;28;20228;-51
2023/03/16 04:30:17;;;;;;;1.58;1.48;;;;;;;;;;5044763;28;20914;-51
2023/03/16 04:32:42;;;;;;;1.30;1.20;;;;;;;;;;5052671;28;20191;-51
2023/03/16 04:35:09;;;;;;;1.58;1.35;;;;;;;;;;5053089;28;20501;-50
2023/03/16 04:37:35;;;;;;;1.50;1.40;;;;;;;;;;5045371;28;20176;-50
2023/03/16 04:40:09;;;;;;;2.90;1.40;;;;;;;;;;5051863;28;20171;-50
2023/03/16 04:42:35;;;;;;;2.63;1.30;;;;;;;;;;5052000;28;20186;-50
2023/03/16 04:45:01;;;;;;;2.03;1.50;;;;;;;;;;5050980;28;20199;-50
2023/03/16 04:47:27;;;;;;;2.25;1.80;;;;;;;;;;5047493;28;20203;-51
2023/03/16 04:49:53;;;;;;;3.10;1.60;;;;;;;;;;5050805;28;20618;-50
2023/03/16 04:52:19;;;;;;;5.15;2.40;;;;;;;;;;5048449;28;20233;-50
2023/03/16 04:54:45;;;;;;;1.88;1.60;;;;;;;;;;5043710;28;20371;-51
2023/03/16 04:57:11;;;;;;;2.45;1.80;;;;;;;;;;5039382;28;20535;-50
2023/03/16 04:59:37;;;;;;;3.08;1.70;;;;;;;;;;5050536;28;20209;-50
2023/03/16 05:02:03;;;;;;;5.78;1.90;;;;;;;;;;5044588;28;20250;-51
2023/03/16 05:04:29;;;;;;;3.10;1.70;;;;;;;;;;5051588;28;20179;-52
2023/03/16 05:06:55;;;;;;;3.63;2.05;;;;;;;;;;5045680;28;20577;-51
2023/03/16 05:09:20;;;;;;;6.47;1.90;;;;;;;;;;5058992;28;20610;-51
2023/03/16 05:11:46;;;;;;;4.63;1.77;;;;;;;;;;5047410;28;20203;-52
2023/03/16 05:14:12;;;;;;;8.18;2.40;;;;;;;;;;5045134;28;20206;-50
2023/03/16 05:16:38;;;;;;;7.05;2.38;;;;;;;;;;5038553;28;20190;-52
2023/03/16 05:19:04;;;;;;;5.78;1.90;;;;;;;;;;5054375;28;20261;-52
2023/03/16 05:21:30;;;;;;;6.47;1.98;;;;;;;;;;5051956;28;20619;-52
2023/03/16 05:23:56;;;;;;;5.07;1.90;;;;;;;;;;5042144;28;20594;-52
2023/03/16 05:26:24;;;;;;;5.63;1.60;;;;;;;;;;5037773;28;20187;-52
2023/03/16 05:28:50;;;;;;;4.22;1.80;;;;;;;;;;5049368;28;20249;-52
2023/03/16 05:31:16;;;;;;;4.30;1.77;;;;;;;;;;5052329;28;20200;-52
2023/03/16 05:33:43;;;;;;;5.18;2.33;;;;;;;;;;5035758;28;20271;-52
2023/03/16 05:36:09;;;;;;;3.97;2.13;;;;;;;;;;5040422;28;20168;-52
2023/03/16 05:38:35;;;;;;;3.72;1.90;;;;;;;;;;5037488;28;20771;-52
2023/03/16 05:41:03;;;;;;;5.68;1.88;;;;;;;;;;5043547;28;20628;-52
2023/03/16 05:43:29;;;;;;;3.55;1.70;;;;;;;;;;5051199;28;20269;-52
2023/03/16 05:45:55;;;;;;;5.10;1.73;;;;;;;;;;5037970;28;20214;-52
2023/03/16 05:48:24;;;;;;;3.97;1.77;;;;;;;;;;5041927;28;20179;-52
2023/03/16 05:50:50;;;;;;;4.40;1.55;;;;;;;;;;5058605;28;20182;-52
2023/03/16 05:53:16;;;;;;;5.82;2.13;;;;;;;;;;5039593;28;20230;-52
2023/03/16 05:55:42;;;;;;;3.05;1.65;;;;;;;;;;5043433;28;20223;-52
2023/03/16 05:58:08;;;;;;;3.90;1.90;;;;;;;;;;5048274;28;20183;-52
2023/03/16 06:00:34;;;;;;;3.22;1.85;;;;;;;;;;5044949;28;20190;-52
2023/03/16 06:03:00;;;;;;;2.78;1.52;;;;;;;;;;5046137;28;20206;-52
2023/03/16 06:05:27;;;;;;;4.53;1.65;;;;;;;;;;5045608;28;20175;-52
2023/03/16 06:07:53;;;;;;;3.45;1.70;;;;;;;;;;5038877;28;20179;-53
2023/03/16 06:10:19;;;;;;;4.22;1.75;;;;;;;;;;5052519;28;20187;-52
2023/03/16 06:12:45;;;;;;;4.53;1.83;;;;;;;;;;5054519;28;20186;-52
2023/03/16 06:15:11;;;;;;;3.13;1.40;;;;;;;;;;5035924;28;20204;-52
2023/03/16 06:17:38;;;;;;;3.47;1.80;;;;;;;;;;5037953;28;20178;-53
2023/03/16 06:20:09;;;;;;;4.30;1.95;;;;;;;;;;5051249;28;20186;-52
2023/03/16 06:22:35;;;;;;;5.20;1.77;;;;;;;;;;5051837;28;20398;-53
2023/03/16 06:25:01;;;;;;;3.45;1.90;;;;;;;;;;5049268;28;20541;-52
2023/03/16 06:27:27;;;;;;;2.60;1.80;;;;;;;;;;5036259;28;20206;-53
2023/03/16 06:29:53;;;;;;;4.47;1.60;;;;;;;;;;5040580;28;20198;-52
2023/03/16 06:32:20;;;;;;;3.38;1.80;;;;;;;;;;5050769;28;20183;-52
2023/03/16 06:34:46;;;;;;;5.00;1.77;;;;;;;;;;5063128;28;20194;-52
2023/03/16 06:37:12;;;;;;;2.90;1.70;;;;;;;;;;5041461;28;20175;-52
2023/03/16 06:39:38;;;;;;;2.60;1.40;;;;;;;;;;5054068;28;20183;-52
2023/03/16 06:42:04;;;;;;;2.30;1.35;;;;;;;;;;5044881;28;20258;-52
2023/03/16 06:44:30;;;;;;;2.35;1.55;;;;;;;;;;5036249;28;20184;-52
2023/03/16 06:46:57;;;;;;;3.40;1.50;;;;;;;;;;5040821;28;20184;-53
2023/03/16 06:49:23;;;;;;;2.63;1.40;;;;;;;;;;5051828;28;20569;-52
2023/03/16 06:51:49;;;;;;;2.85;1.38;;;;;;;;;;5053163;28;20188;-53
2023/03/16 06:54:15;;;;;;;3.03;1.75;;;;;;;;;;5054123;28;20201;-52
2023/03/16 06:56:41;;;;;;;2.58;1.55;;;;;;;;;;5055254;28;20184;-52
2023/03/16 06:59:07;;;;;;;1.35;1.23;;;;;;;;;;5049651;28;20182;-52
2023/03/16 07:01:33;;;;;;;3.70;1.52;;;;;;;;;;5058727;28;20179;-52
2023/03/16 07:03:59;;;;;;;4.82;1.75;;;;;;;;;;5048416;28;20257;-53
2023/03/16 07:06:25;;;;;;;2.33;1.38;;;;;;;;;;5049870;28;20187;-52
2023/03/16 07:08:51;;;;;;;1.67;1.30;;;;;;;;;;5048388;28;20212;-53
2023/03/16 07:11:17;;;;;;;3.33;1.50;;;;;;;;;;5063955;28;20184;-52
2023/03/16 07:13:43;;;;;;;1.85;1.30;;;;;;;;;;5051924;28;20195;-53
2023/03/16 07:16:09;;;;;;;1.52;1.13;;;;;;;;;;5054359;28;20217;-52
2023/03/16 07:18:36;;;;;;;1.98;1.38;;;;;;;;;;5049323;28;20225;-52
2023/03/16 07:21:02;;;;;;;2.55;1.50;;;;;;;;;;5052630;28;20215;-52
2023/03/16 07:23:29;;;;;;;2.10;1.30;;;;;;;;;;5055961;28;20240;-52
2023/03/16 07:25:54;;;;;;;2.47;1.33;;;;;;;;;;5049668;28;20580;-52
2023/03/16 07:28:22;;;;;;;3.53;1.42;;;;;;;;;;5053310;28;20183;-53
2023/03/16 07:30:47;;;;;;;2.63;1.30;;;;;;;;;;5047027;28;20274;-53
2023/03/16 07:33:14;;;;;;;2.22;1.50;;;;;;;;;;5041198;28;20183;-53
2023/03/16 07:35:40;;;;;;;1.98;1.30;;;;;;;;;;5052230;28;20219;-53
2023/03/16 07:38:06;;;;;;;2.13;1.40;;;;;;;;;;5042819;28;20181;-52
2023/03/16 07:40:33;;;;;;;1.73;1.30;;;;;;;;;;5054165;28;20636;-53
2023/03/16 07:42:59;;;;;;;1.73;1.30;;;;;;;;;;5051935;28;20180;-53
2023/03/16 07:45:25;;;;;;;1.30;1.20;;;;;;;;;;5048686;28;20190;-52
2023/03/16 07:47:51;;;;;;;2.25;1.63;;;;;;;;;;5048544;28;20450;-52
2023/03/16 07:50:18;;;;;;;1.50;1.10;;;;;;;;;;5047746;28;20187;-53
2023/03/16 07:52:45;;;;;;;2.20;1.60;;;;;;;;;;5051292;28;20699;-52
2023/03/16 07:55:11;;;;;;;2.05;1.40;;;;;;;;;;5047102;28;20202;-52
2023/03/16 07:57:38;;;;;;;2.67;1.60;;;;;;;;;;5048402;28;20187;-52
2023/03/16 08:00:06;;;;;;;2.30;1.30;;;;;;;;;;5061213;28;20178;-53
2023/03/16 08:02:32;;;;;;;2.20;1.30;;;;;;;;;;5049302;28;20182;-52
2023/03/16 08:04:58;;;;;;;2.35;1.50;;;;;;;;;;5046033;28;20206;-52
2023/03/16 08:07:24;;;;;;;3.55;1.70;;;;;;;;;;5041712;28;20200;-53
2023/03/16 08:09:51;;;;;;;1.80;1.45;;;;;;;;;;5047831;28;20187;-53
2023/03/16 08:12:17;;;;;;;1.48;1.25;;;;;;;;;;5058897;28;20195;-52
2023/03/16 08:14:44;;;;;;;2.90;1.48;;;;;;;;;;5052778;28;20210;-53
2023/03/16 08:17:11;;;;;;;1.30;1.20;;;;;;;;;;5043890;28;20216;-53
2023/03/16 08:19:37;;;;;;;1.30;1.08;;;;;;;;;;5038671;28;20187;-53
2023/03/16 08:22:04;;;;;;;1.88;1.27;;;;;;;;;;5047225;28;20559;-53
2023/03/16 08:24:30;;;;;;;1.70;1.20;;;;;;;;;;5045591;28;20194;-53
2023/03/16 08:26:56;;;;;;;2.47;1.50;;;;;;;;;;5044263;28;20184;-53
2023/03/16 08:29:23;;;;;;;1.83;1.40;;;;;;;;;;5064547;28;20186;-53
2023/03/16 08:31:49;;;;;;;1.40;1.30;;;;;;;;;;5046957;28;20571;-53
2023/03/16 08:34:16;;;;;;;2.15;1.25;;;;;;;;;;5037287;28;20204;-53
2023/03/16 08:36:42;;;;;;;1.98;1.40;;;;;;;;;;5044244;28;20182;-53
2023/03/16 08:39:08;;;;;;;2.05;1.40;;;;;;;;;;5049312;28;20209;-53
2023/03/16 08:41:34;;;;;;;1.00;1.00;;;;;;;;;;5042509;28;20200;-53
2023/03/16 08:44:00;;;;;;;1.20;1.10;;;;;;;;;;5052778;28;20198;-53
2023/03/16 08:46:26;;;;;;;1.58;1.10;;;;;;;;;;5049262;28;20180;-53
2023/03/16 08:48:54;;;;;;;1.40;1.30;;;;;;;;;;5045612;28;20590;-53
2023/03/16 08:51:20;;;;;;;2.20;1.30;;;;;;;;;;5048707;28;20176;-54
2023/03/16 08:53:46;;;;;;;1.70;1.40;;;;;;;;;;5053706;28;20194;-54
2023/03/16 08:56:13;;;;;;;2.22;1.20;;;;;;;;;;5052105;28;20183;-54
2023/03/16 08:58:44;;;;;;;1.33;1.17;;;;;;;;;;5043521;28;20182;-54
2023/03/16 09:01:10;;;;;;;1.88;1.20;;;;;;;;;;5051037;28;20182;-53
2023/03/16 09:03:35;;;;;;;1.52;1.27;;;;;;;;;;5037710;28;20613;-54
2023/03/16 09:06:02;;;;;;;2.10;1.27;;;;;;;;;;5051017;28;20230;-54
2023/03/16 09:08:28;;;;;;;1.40;1.30;;;;;;;;;;5041203;28;20631;-54
2023/03/16 09:11:01;;;;;;;1.98;1.35;;;;;;;;;;5064175;28;20598;-54
2023/03/16 09:13:27;;;;;;;1.65;1.15;;;;;;;;;;5058038;28;20182;-54
2023/03/16 09:15:53;;;;;;;1.58;1.00;;;;;;;;;;5062971;28;20502;-54
2023/03/16 09:18:20;;;;;;;2.03;1.23;;;;;;;;;;5041489;28;20445;-54
2023/03/16 09:20:46;;;;;;;1.65;1.20;;;;;;;;;;5038429;28;20215;-55
2023/03/16 09:23:12;;;;;;;1.63;1.17;;;;;;;;;;5041089;28;20181;-55
2023/03/16 09:25:38;;;;;;;1.60;1.30;;;;;;;;;;5042261;28;20191;-55
2023/03/16 09:28:05;;;;;;;2.25;1.33;;;;;;;;;;5045926;28;20183;-55
2023/03/16 09:30:31;;;;;;;1.40;1.10;;;;;;;;;;5046094;28;20202;-55
2023/03/16 09:32:57;;;;;;;1.50;1.13;;;;;;;;;;5057677;28;20198;-55
2023/03/16 09:35:24;;;;;;;2.08;1.40;;;;;;;;;;5054758;28;20203;-55
2023/03/16 09:37:51;;;;;;;1.25;1.15;;;;;;;;;;5037281;28;20194;-55
2023/03/16 09:40:24;;;;;;;1.52;1.00;;;;;;;;;;5035819;28;20206;-55
2023/03/16 09:42:54;;;;;;;1.15;1.05;;;;;;;;;;5042418;28;20257;-55
2023/03/16 09:45:23;;;;;;;0.98;0.90;;;;;;;;;;5064961;28;20186;-56
2023/03/16 09:47:50;;;;;;;1.70;1.20;;;;;;;;;;5036137;28;20568;-55
2023/03/16 09:50:21;;;;;;;1.55;0.88;;;;;;;;;;5058657;28;20174;-55
2023/03/16 09:52:56;;;;;;;1.20;1.10;;;;;;;;;;5046557;28;20236;-55
2023/03/16 09:55:33;;;;;;;1.40;1.00;;;;;;;;;;5035533;28;20252;-55
2023/03/16 09:58:00;;;;;;;1.33;1.05;;;;;;;;;;5036847;28;20283;-55
2023/03/16 10:00:47;;;;;;;1.10;1.00;;;;;;;;;;5052848;28;20229;-55
2023/03/16 10:03:29;;;;;;;1.25;1.02;;;;;;;;;;5048940;28;20178;-55
2023/03/16 10:06:03;;;;;;;1.17;1.08;;;;;;;;;;5043135;28;20184;-55
2023/03/16 10:08:39;;;;;;;1.27;1.15;;;;;;;;;;5038996;28;20191;-54
2023/03/16 10:11:17;;;;;;;1.60;0.90;;;;;;;;;;5054433;28;20210;-54
2023/03/16 10:13:49;;;;;;;1.10;1.00;;;;;;;;;;5038482;28;20187;-55
2023/03/16 10:16:21;;;;;;;1.52;1.10;;;;;;;;;;5051103;28;20531;-55
2023/03/16 10:18:49;;;;;;;1.38;1.10;;;;;;;;;;5043582;28;20290;-54
2023/03/16 10:21:17;;;;;;;2.03;1.00;;;;;;;;;;5041761;28;20488;-54
2023/03/16 10:23:43;;;;;;;0.90;0.90;;;;;;;;;;5061978;28;20167;-54
2023/03/16 10:26:12;;;;;;;1.65;1.08;;;;;;;;;;5050495;28;20199;-54
2023/03/16 10:28:38;;;;;;;1.38;1.10;;;;;;;;;;5054620;28;20170;-54
2023/03/16 10:31:04;;;;;;;1.30;1.20;;;;;;;;;;5056227;28;20226;-54
2023/03/16 10:33:35;;;;;;;1.20;1.02;;;;;;;;;;5047262;28;20179;-54
2023/03/16 10:36:04;;;;;;;1.50;0.80;;;;;;;;;;5052052;28;20234;-54
2023/03/16 10:38:37;;;;;;;1.70;1.00;;;;;;;;;;5034855;28;20180;-54
2023/03/16 10:41:03;;;;;;;3.08;1.23;;;;;;;;;;5042620;28;20199;-54
2023/03/16 10:43:30;;;;;;;1.77;1.20;;;;;;;;;;5053544;28;20194;-54
2023/03/16 10:46:01;;;;;;;1.20;1.10;;;;;;;;;;5046910;28;20564;-54
2023/03/16 10:48:30;;;;;;;1.45;1.00;;;;;;;;;;5039954;28;20270;-57
2023/03/16 10:50:56;;;;;;;0.80;0.80;;;;;;;;;;5050522;28;20186;-55
2023/03/16 10:53:25;;;;;;;1.52;1.10;;;;;;;;;;5053583;28;20179;-55
2023/03/16 10:55:57;;;;;;;1.80;0.90;;;;;;;;;;5046271;28;20565;-55
2023/03/16 10:58:25;;;;;;;2.03;1.02;;;;;;;;;;5044114;28;20176;-56
2023/03/16 11:00:52;;;;;;;2.00;0.98;;;;;;;;;;5043291;28;20260;-56
2023/03/16 11:03:26;;;;;;;1.25;0.80;;;;;;;;;;5043612;28;20187;-56
2023/03/16 11:05:59;;;;;;;1.70;0.98;;;;;;;;;;5042657;28;20371;-56
2023/03/16 11:08:26;;;;;;;1.90;1.00;;;;;;;;;;5039152;28;20503;-57
2023/03/16 11:10:57;;;;;;;1.13;0.88;;;;;;;;;;5057898;28;20229;-56
2023/03/16 11:13:25;;;;;;;2.38;1.05;;;;;;;;;;5051991;28;20180;-56
2023/03/16 11:16:00;;;;;;;3.13;1.00;;;;;;;;;;5044741;28;20215;-56
2023/03/16 11:18:28;;;;;;;2.00;0.95;;;;;;;;;;5036733;28;20184;-56
2023/03/16 11:20:54;;;;;;;1.73;1.17;;;;;;;;;;5040075;28;20225;-57
2023/03/16 11:23:25;;;;;;;0.95;0.80;;;;;;;;;;5037324;28;20222;-58
2023/03/16 11:25:52;;;;;;;1.27;1.00;;;;;;;;;;5046265;28;20175;-57
2023/03/16 11:28:37;;;;;;;0.90;0.90;;;;;;;;;;5044694;28;20184;-57
2023/03/16 11:31:26;;;;;;;1.00;0.90;;;;;;;;;;5055378;28;20565;-56
2023/03/16 11:33:56;;;;;;;1.67;1.00;;;;;;;;;;5051838;28;20230;-56
2023/03/16 11:36:39;;;;;;;0.95;0.70;;;;;;;;;;5050780;28;20166;-56
2023/03/16 11:39:17;;;;;;;0.80;0.80;;;;;;;;;;5041142;28;20261;-56
2023/03/16 11:41:47;;;;;;;1.15;1.00;;;;;;;;;;5047720;28;20195;-56
2023/03/16 11:44:22;;;;;;;1.00;0.90;;;;;;;;;;5038474;28;20206;-56
2023/03/16 11:46:56;;;;;;;2.85;0.80;;;;;;;;;;5038573;28;20194;-56
2023/03/16 11:49:41;;;;;;;2.20;1.00;;;;;;;;;;5057347;28;20201;-57
2023/03/16 11:52:26;;;;;;;2.88;1.00;;;;;;;;;;5047795;28;20201;-56
2023/03/16 11:54:59;;;;;;;0.95;0.70;;;;;;;;;;5067743;28;20216;-56
2023/03/16 11:57:31;;;;;;;0.70;0.70;;;;;;;;;;5042731;28;20640;-56
2023/03/16 12:00:17;;;;;;;1.67;1.00;;;;;;;;;;5045378;28;20449;-56
2023/03/16 12:02:57;;;;;;;1.65;0.80;;;;;;;;;;5041809;28;20198;-56
2023/03/16 12:05:41;;;;;;;1.08;0.82;;;;;;;;;;5037632;28;20236;-56
2023/03/16 12:08:08;;;;;;;0.68;0.68;;;;;;;;;;5055955;28;20236;-56
2023/03/16 12:10:38;;;;;;;0.80;0.80;;;;;;;;;;5038658;28;20216;-56
2023/03/16 12:13:10;;;;;;;1.58;1.00;;;;;;;;;;5052355;28;20197;-55
2023/03/16 12:15:43;;;;;;;1.05;0.68;;;;;;;;;;5039915;28;20244;-55
2023/03/16 12:18:17;;;;;;;1.13;0.80;;;;;;;;;;5050617;28;20179;-56
2023/03/16 12:20:47;;;;;;;0.98;0.60;;;;;;;;;;5049040;28;20183;-56
2023/03/16 12:23:15;;;;;;;1.02;0.70;;;;;;;;;;5049828;28;20179;-56
2023/03/16 12:25:44;;;;;;;0.70;0.70;;;;;;;;;;5056277;28;20194;-56
2023/03/16 12:28:17;;;;;;;0.70;0.70;;;;;;;;;;5039623;28;20345;-56
2023/03/16 12:30:48;;;;;;;1.27;0.90;;;;;;;;;;5053520;28;20195;-56
2023/03/16 12:33:21;;;;;;;0.65;0.50;;;;;;;;;;5051662;28;20186;-55
2023/03/16 12:36:03;;;;;;;0.70;0.70;;;;;;;;;;5046963;28;20571;-55
2023/03/16 12:38:52;;;;;;;1.45;0.70;;;;;;;;;;5043772;28;20171;-55
2023/03/16 12:41:18;;;;;;;0.80;0.80;;;;;;;;;;5060600;28;20289;-55
2023/03/16 12:44:00;;;;;;;0.95;0.80;;;;;;;;;;5045031;28;20580;-56
2023/03/16 12:46:41;;;;;;;1.00;0.80;;;;;;;;;;5047177;28;20280;-55
2023/03/16 12:49:07;;;;;;;0.80;0.70;;;;;;;;;;5037523;28;20467;-55
2023/03/16 12:51:38;;;;;;;0.98;0.65;;;;;;;;;;5052248;28;20210;-55
2023/03/16 12:54:06;;;;;;;1.30;0.80;;;;;;;;;;5045774;28;20199;-55
2023/03/16 12:56:34;;;;;;;1.90;0.80;;;;;;;;;;5045488;28;20256;-56
2023/03/16 12:59:02;;;;;;;1.13;0.80;;;;;;;;;;5050958;28;20424;-55
2023/03/16 13:01:29;;;;;;;2.08;0.90;;;;;;;;;;5046169;28;20175;-55
2023/03/16 13:04:18;;;;;;;0.88;0.73;;;;;;;;;;5048973;28;20218;-55
2023/03/16 13:06:47;;;;;;;1.25;0.80;;;;;;;;;;5044878;28;20188;-55
2023/03/16 13:09:17;;;;;;;1.05;0.80;;;;;;;;;;5050068;28;20473;-56
2023/03/16 13:11:49;;;;;;;1.15;0.85;;;;;;;;;;5050652;28;20187;-56
2023/03/16 13:14:35;;;;;;;0.98;0.68;;;;;;;;;;5051834;28;20610;-55
2023/03/16 13:17:05;;;;;;;1.23;0.82;;;;;;;;;;5048501;28;20261;-55
2023/03/16 13:19:36;;;;;;;1.02;0.93;;;;;;;;;;5044959;28;20198;-55
2023/03/16 13:22:19;;;;;;;1.13;0.82;;;;;;;;;;5035456;28;20195;-55
2023/03/16 13:25:05;;;;;;;1.50;0.77;;;;;;;;;;5039284;28;20178;-55
2023/03/16 13:27:33;;;;;;;1.27;0.80;;;;;;;;;;5037240;28;20179;-55
2023/03/16 13:30:00;;;;;;;0.80;0.70;;;;;;;;;;5049881;28;20222;-55
2023/03/16 13:32:30;;;;;;;0.95;0.50;;;;;;;;;;5043279;28;20171;-55
2023/03/16 13:34:57;;;;;;;0.82;0.77;;;;;;;;;;5037815;28;20203;-55
2023/03/16 13:37:27;;;;;;;0.98;0.80;;;;;;;;;;5045867;28;20206;-55
2023/03/16 13:39:54;;;;;;;1.58;0.85;;;;;;;;;;5046388;28;20207;-55
2023/03/16 13:42:22;;;;;;;0.70;0.60;;;;;;;;;;5039801;28;20172;-55
2023/03/16 13:44:48;;;;;;;1.02;0.80;;;;;;;;;;5036756;28;20266;-55
2023/03/16 13:47:15;;;;;;;1.10;0.80;;;;;;;;;;5040733;28;20179;-55
2023/03/16 13:49:49;;;;;;;0.95;0.75;;;;;;;;;;5038501;28;20183;-55
2023/03/16 13:52:34;;;;;;;0.82;0.70;;;;;;;;;;5038179;28;20203;-55
2023/03/16 13:55:02;;;;;;;0.90;0.90;;;;;;;;;;5043080;28;20226;-55
2023/03/16 13:57:29;;;;;;;1.50;0.73;;;;;;;;;;5054006;28;20174;-55
2023/03/16 14:00:04;;;;;;;1.05;0.85;;;;;;;;;;5041686;28;20186;-55
2023/03/16 14:02:30;;;;;;;0.65;0.65;;;;;;;;;;5038659;28;20175;-55
2023/03/16 14:04:57;;;;;;;1.85;0.77;;;;;;;;;;5040976;28;20266;-55
2023/03/16 14:07:25;;;;;;;0.60;0.60;;;;;;;;;;5050377;28;20183;-55
2023/03/16 14:09:51;;;;;;;0.80;0.80;;;;;;;;;;5058034;28;20210;-55
2023/03/16 14:12:18;;;;;;;1.67;0.73;;;;;;;;;;5054922;28;20214;-55
2023/03/16 14:14:50;;;;;;;0.93;0.73;;;;;;;;;;5042294;28;20208;-55
2023/03/16 14:17:18;;;;;;;0.77;0.77;;;;;;;;;;5041108;28;20179;-55
2023/03/16 14:19:46;;;;;;;0.65;0.65;;;;;;;;;;5046696;28;20558;-55
2023/03/16 14:22:17;;;;;;;0.85;0.82;;;;;;;;;;5035466;28;20194;-54
2023/03/16 14:24:44;;;;;;;0.63;0.63;;;;;;;;;;5050279;28;20202;-54
2023/03/16 14:27:16;;;;;;;1.20;0.75;;;;;;;;;;5043513;28;20184;-54
2023/03/16 14:29:43;;;;;;;1.35;0.75;;;;;;;;;;5045263;28;20497;-54
2023/03/16 14:32:27;;;;;;;2.40;0.70;;;;;;;;;;5046780;28;20631;-54
2023/03/16 14:35:00;;;;;;;1.50;0.90;;;;;;;;;;5051201;28;20198;-54
2023/03/16 14:37:34;;;;;;;1.50;0.80;;;;;;;;;;5040688;28;20206;-54
2023/03/16 14:40:06;;;;;;;0.93;0.90;;;;;;;;;;5041603;28;20444;-54
2023/03/16 14:42:32;;;;;;;1.17;0.90;;;;;;;;;;5049462;28;20174;-54
2023/03/16 14:44:59;;;;;;;3.47;0.95;;;;;;;;;;5041391;28;20415;-54
2023/03/16 14:47:27;;;;;;;2.47;1.10;;;;;;;;;;5044279;28;20175;-54
2023/03/16 14:49:53;;;;;;;1.20;0.90;;;;;;;;;;5040743;28;20195;-54
2023/03/16 14:52:24;;;;;;;2.10;1.33;;;;;;;;;;5045978;28;20203;-54